Time;durP1;ratioP1;P1;durP2;ratioP2;P2;SDS_P1;SDS_P2;PMS_P1;PMS_P2;Temp;Humidity;BMP_temperature;BMP_pressure;BME280_temperature;BME280_humidity;BME280_pressure;Samples;Min_cycle;Max_cycle;Signal;HPM_P1;HPM_P2
2024/04/08 00:02:02;;;;;;;12.77;3.20;;;;;;;;;;5117501;28;20179;-93
2024/04/08 00:05:07;;;;;;;8.68;3.17;;;;;;;;;;5115336;28;20173;-95
2024/04/08 00:08:13;;;;;;;16.80;4.25;;;;;;;;;;5116221;28;20235;-92
2024/04/08 00:11:19;;;;;;;12.60;3.05;;;;;;;;;;5116645;28;20189;-92
2024/04/08 00:14:23;;;;;;;10.30;3.22;;;;;;;;;;5116951;28;20196;-92
2024/04/08 00:17:28;;;;;;;8.77;3.45;;;;;;;;;;5096178;28;20181;-94
2024/04/08 00:20:34;;;;;;;8.40;2.80;;;;;;;;;;5096397;28;20201;-89
2024/04/08 00:23:42;;;;;;;11.20;3.10;;;;;;;;;;5096547;28;20285;-92
2024/04/08 00:26:46;;;;;;;9.60;3.05;;;;;;;;;;5095844;28;20311;-92
2024/04/08 00:29:52;;;;;;;12.30;2.97;;;;;;;;;;5095349;28;20178;-88
2024/04/08 00:32:56;;;;;;;9.82;2.72;;;;;;;;;;5097158;28;20258;-91
2024/04/08 00:36:02;;;;;;;7.97;2.88;;;;;;;;;;5095720;28;20236;-91
2024/04/08 00:39:07;;;;;;;7.20;2.63;;;;;;;;;;5094941;28;20182;-91
2024/04/08 00:42:13;;;;;;;8.32;2.92;;;;;;;;;;5093987;28;20177;-91
2024/04/08 00:45:16;;;;;;;9.32;2.90;;;;;;;;;;5095781;28;20193;-92
2024/04/08 00:48:22;;;;;;;10.70;2.83;;;;;;;;;;5096084;28;20212;-92
2024/04/08 00:51:28;;;;;;;11.85;3.30;;;;;;;;;;5094932;28;20189;-91
2024/04/08 00:54:34;;;;;;;14.15;2.85;;;;;;;;;;5095064;28;20185;-90
2024/04/08 00:57:39;;;;;;;16.58;3.42;;;;;;;;;;5095766;28;20201;-91
2024/04/08 01:00:43;;;;;;;14.85;3.10;;;;;;;;;;5097190;28;20185;-92
2024/04/08 01:03:50;;;;;;;10.60;3.28;;;;;;;;;;5096815;28;20231;-93
2024/04/08 01:06:53;;;;;;;8.88;2.92;;;;;;;;;;5098034;28;20202;-91
2024/04/08 01:10:00;;;;;;;7.93;2.80;;;;;;;;;;5097618;28;20185;-91
2024/04/08 01:13:04;;;;;;;6.20;2.92;;;;;;;;;;5098944;28;20194;-90
2024/04/08 01:16:10;;;;;;;6.35;2.95;;;;;;;;;;5096572;28;20248;-90
2024/04/08 01:19:22;;;;;;;19.13;3.35;;;;;;;;;;5095728;28;20261;-91
2024/04/08 01:22:30;;;;;;;14.82;3.28;;;;;;;;;;5096062;28;20197;-92
2024/04/08 01:25:36;;;;;;;11.93;2.80;;;;;;;;;;5096455;28;20207;-94
2024/04/08 01:28:41;;;;;;;14.30;3.30;;;;;;;;;;5094721;28;20657;-92
2024/04/08 01:31:46;;;;;;;9.38;2.65;;;;;;;;;;5095003;28;20181;-92
2024/04/08 01:34:50;;;;;;;11.43;2.92;;;;;;;;;;5094380;28;20190;-94
2024/04/08 01:37:55;;;;;;;12.05;3.50;;;;;;;;;;5095336;28;20193;-91
2024/04/08 01:41:00;;;;;;;12.73;3.10;;;;;;;;;;5094092;28;20194;-92
2024/04/08 01:44:06;;;;;;;11.90;3.00;;;;;;;;;;5106010;28;20266;-91
2024/04/08 01:47:11;;;;;;;10.65;3.20;;;;;;;;;;5092511;28;20261;-92
2024/04/08 01:50:17;;;;;;;9.50;3.28;;;;;;;;;;5106092;28;20249;-93
2024/04/08 01:53:21;;;;;;;6.40;2.90;;;;;;;;;;5092721;28;20652;-91
2024/04/08 01:56:28;;;;;;;14.57;3.03;;;;;;;;;;5094938;28;20293;-90
2024/04/08 01:59:31;;;;;;;11.98;3.05;;;;;;;;;;5106472;28;20204;-91
2024/04/08 02:02:37;;;;;;;11.32;3.38;;;;;;;;;;5102169;28;20562;-90
2024/04/08 02:05:41;;;;;;;10.00;2.97;;;;;;;;;;5095373;28;20241;-92
2024/04/08 02:08:46;;;;;;;9.43;3.25;;;;;;;;;;5095104;28;20207;-92
2024/04/08 02:11:52;;;;;;;15.32;3.90;;;;;;;;;;5095121;28;20555;-95
2024/04/08 02:14:58;;;;;;;11.65;3.20;;;;;;;;;;5094261;28;20211;-92
2024/04/08 02:18:01;;;;;;;8.65;3.10;;;;;;;;;;5093730;28;20182;-92
2024/04/08 02:21:12;;;;;;;10.75;3.58;;;;;;;;;;5094349;28;20297;-92
2024/04/08 02:24:18;;;;;;;9.15;3.30;;;;;;;;;;5094372;28;20840;-94
2024/04/08 02:27:23;;;;;;;16.30;3.58;;;;;;;;;;5094078;28;20200;-93
2024/04/08 02:30:29;;;;;;;11.55;2.97;;;;;;;;;;5092526;28;20239;-93
2024/04/08 02:33:33;;;;;;;9.98;3.47;;;;;;;;;;5092501;28;20193;-93
2024/04/08 02:36:39;;;;;;;8.65;3.33;;;;;;;;;;5105004;28;20221;-93
2024/04/08 02:39:44;;;;;;;8.90;3.30;;;;;;;;;;5104031;28;20186;-93
2024/04/08 02:42:51;;;;;;;9.80;3.22;;;;;;;;;;5092306;28;20227;-92
2024/04/08 02:45:55;;;;;;;8.10;3.28;;;;;;;;;;5103334;28;20182;-94
2024/04/08 02:49:00;;;;;;;10.70;4.05;;;;;;;;;;5092604;28;20216;-93
2024/04/08 02:52:04;;;;;;;12.68;3.75;;;;;;;;;;5093243;28;20205;-91
2024/04/08 02:55:10;;;;;;;10.95;3.35;;;;;;;;;;5099948;28;20262;-94
2024/04/08 02:58:16;;;;;;;10.73;3.78;;;;;;;;;;5113555;28;20346;-91
2024/04/08 03:01:21;;;;;;;9.35;3.45;;;;;;;;;;5114274;28;20192;-94
2024/04/08 03:04:25;;;;;;;8.82;3.55;;;;;;;;;;5118906;28;20222;-93
2024/04/08 03:07:35;;;;;;;15.23;3.58;;;;;;;;;;5116979;28;20197;-93
2024/04/08 03:10:38;;;;;;;15.43;3.60;;;;;;;;;;5118443;28;20193;-93
2024/04/08 03:13:46;;;;;;;10.48;3.08;;;;;;;;;;5117575;28;20212;-96
2024/04/08 03:16:50;;;;;;;7.78;2.97;;;;;;;;;;5118886;28;20208;-93
2024/04/08 03:19:57;;;;;;;9.23;3.05;;;;;;;;;;5117540;28;20192;-93
2024/04/08 03:23:02;;;;;;;10.43;3.38;;;;;;;;;;5118862;28;20189;-92
2024/04/08 03:26:08;;;;;;;12.85;3.53;;;;;;;;;;5118970;28;20227;-93
2024/04/08 03:29:15;;;;;;;16.58;3.70;;;;;;;;;;5108858;28;20215;-93
2024/04/08 03:32:20;;;;;;;10.15;3.85;;;;;;;;;;5097485;28;20174;-95
2024/04/08 03:35:23;;;;;;;8.73;3.33;;;;;;;;;;5095417;28;20190;-93
2024/04/08 03:38:29;;;;;;;11.57;3.13;;;;;;;;;;5095508;28;20174;-94
2024/04/08 03:41:34;;;;;;;20.33;3.40;;;;;;;;;;5096725;28;20672;-91
2024/04/08 03:44:41;;;;;;;13.07;3.95;;;;;;;;;;5097538;28;20181;-94
2024/04/08 03:47:46;;;;;;;14.18;4.05;;;;;;;;;;5103370;28;20192;-94
2024/04/08 03:50:51;;;;;;;11.95;4.00;;;;;;;;;;5098928;28;20236;-93
2024/04/08 03:53:57;;;;;;;11.85;4.00;;;;;;;;;;5097195;28;20206;-91
2024/04/08 03:57:01;;;;;;;15.07;5.00;;;;;;;;;;5110065;28;20231;-92
2024/04/08 04:00:09;;;;;;;7.60;3.63;;;;;;;;;;5115452;28;20233;-93
2024/04/08 04:03:17;;;;;;;12.65;4.32;;;;;;;;;;5116103;28;20192;-93
2024/04/08 04:06:21;;;;;;;9.57;3.67;;;;;;;;;;5116277;28;20201;-93
2024/04/08 04:09:26;;;;;;;8.00;3.40;;;;;;;;;;5115918;28;20186;-92
2024/04/08 04:12:30;;;;;;;7.75;3.20;;;;;;;;;;5117235;28;20205;-93
2024/04/08 04:15:37;;;;;;;10.27;3.55;;;;;;;;;;5115624;28;20244;-91
2024/04/08 04:18:41;;;;;;;8.63;3.10;;;;;;;;;;5116795;28;20181;-93
2024/04/08 04:21:47;;;;;;;8.73;3.65;;;;;;;;;;5117751;28;20207;-94
2024/04/08 04:24:51;;;;;;;16.83;4.20;;;;;;;;;;5104818;28;20185;-92
2024/04/08 04:27:57;;;;;;;12.32;3.90;;;;;;;;;;5117992;28;20173;-94
2024/04/08 04:31:04;;;;;;;16.10;3.88;;;;;;;;;;5116079;28;20200;-92
2024/04/08 04:34:09;;;;;;;13.07;3.63;;;;;;;;;;5117251;28;20249;-92
2024/04/08 04:37:15;;;;;;;10.50;3.40;;;;;;;;;;5114195;28;20265;-93
2024/04/08 04:40:19;;;;;;;15.80;3.85;;;;;;;;;;5108141;28;20213;-92
2024/04/08 04:43:25;;;;;;;16.00;3.63;;;;;;;;;;5117055;28;20239;-94
2024/04/08 04:46:31;;;;;;;8.50;3.30;;;;;;;;;;5118485;28;20169;-93
2024/04/08 04:49:36;;;;;;;8.20;3.20;;;;;;;;;;5116979;28;20228;-91
2024/04/08 04:52:40;;;;;;;13.68;4.18;;;;;;;;;;5112179;28;20200;-91
2024/04/08 04:55:51;;;;;;;12.48;3.63;;;;;;;;;;5097038;28;20781;-92
2024/04/08 04:58:55;;;;;;;13.32;3.53;;;;;;;;;;5100955;28;20255;-91
2024/04/08 05:02:03;;;;;;;8.45;3.55;;;;;;;;;;5107501;28;20260;-91
2024/04/08 05:05:08;;;;;;;9.57;3.22;;;;;;;;;;5097877;28;20194;-93
2024/04/08 05:08:14;;;;;;;8.20;3.25;;;;;;;;;;5098042;28;20186;-92
2024/04/08 05:11:20;;;;;;;10.15;3.30;;;;;;;;;;5097653;28;20225;-93
2024/04/08 05:14:24;;;;;;;11.77;3.55;;;;;;;;;;5096828;28;20177;-93
2024/04/08 05:17:31;;;;;;;13.73;3.63;;;;;;;;;;5098562;28;20232;-92
2024/04/08 05:20:35;;;;;;;13.05;3.80;;;;;;;;;;5099039;28;20252;-91
2024/04/08 05:23:41;;;;;;;10.88;3.17;;;;;;;;;;5116461;28;20177;-92
2024/04/08 05:26:45;;;;;;;8.98;3.58;;;;;;;;;;5117181;28;20201;-93
2024/04/08 05:29:51;;;;;;;9.57;3.70;;;;;;;;;;5116690;28;20238;-93
2024/04/08 05:32:59;;;;;;;10.48;3.45;;;;;;;;;;5118741;28;20189;-93
2024/04/08 05:39:24;;;;;;;9.55;3.97;;;;;;;;;;5120198;28;20189;-92
2024/04/08 05:42:28;;;;;;;10.65;3.85;;;;;;;;;;5118389;28;20203;-92
2024/04/08 05:45:34;;;;;;;10.40;3.70;;;;;;;;;;5116386;28;20195;-92
2024/04/08 05:48:42;;;;;;;10.07;3.45;;;;;;;;;;5116422;28;20216;-91
2024/04/08 05:51:46;;;;;;;9.95;3.67;;;;;;;;;;5116660;28;20193;-93
2024/04/08 05:54:52;;;;;;;12.82;3.45;;;;;;;;;;5118002;28;20165;-91
2024/04/08 05:57:57;;;;;;;12.15;3.50;;;;;;;;;;5108858;28;20279;-91
2024/04/08 06:01:04;;;;;;;23.48;3.95;;;;;;;;;;5103427;28;20190;-90
2024/04/08 06:04:12;;;;;;;15.68;4.30;;;;;;;;;;5098347;28;20205;-90
2024/04/08 06:07:18;;;;;;;11.38;3.58;;;;;;;;;;5098061;28;20201;-91
2024/04/08 06:10:27;;;;;;;15.75;3.85;;;;;;;;;;5097532;28;20181;-91
2024/04/08 06:13:31;;;;;;;12.55;3.30;;;;;;;;;;5100060;28;20205;-91
2024/04/08 06:16:36;;;;;;;12.63;3.92;;;;;;;;;;5097805;28;20232;-90
2024/04/08 06:19:44;;;;;;;12.75;3.90;;;;;;;;;;5098445;28;20248;-92
2024/04/08 06:26:54;;;;;;;10.93;3.78;;;;;;;;;;5095820;28;20185;-93
2024/04/08 06:30:06;;;;;;;14.45;4.30;;;;;;;;;;5109533;28;20652;-91
2024/04/08 06:33:11;;;;;;;9.70;4.13;;;;;;;;;;5096370;28;20210;-92
2024/04/08 06:36:17;;;;;;;10.25;4.00;;;;;;;;;;5097015;28;20209;-93
2024/04/08 06:39:23;;;;;;;14.77;3.65;;;;;;;;;;5098035;28;20675;-94
2024/04/08 06:42:28;;;;;;;13.07;3.60;;;;;;;;;;5098813;28;20185;-93
2024/04/08 06:45:33;;;;;;;16.98;4.30;;;;;;;;;;5098046;28;20190;-92
2024/04/08 06:48:39;;;;;;;7.70;3.08;;;;;;;;;;5098330;28;20194;-91
2024/04/08 06:51:56;;;;;;;14.05;5.47;;;;;;;;;;5100217;28;20206;-92
2024/04/08 06:55:01;;;;;;;13.23;3.50;;;;;;;;;;5099219;28;20185;-93
2024/04/08 06:58:07;;;;;;;10.45;3.60;;;;;;;;;;5098368;28;20589;-94
2024/04/08 07:01:12;;;;;;;13.93;4.07;;;;;;;;;;5098392;28;20196;-91
2024/04/08 07:04:19;;;;;;;15.32;4.28;;;;;;;;;;5099713;28;20178;-89
2024/04/08 07:07:27;;;;;;;12.90;3.20;;;;;;;;;;5099843;28;20675;-93
2024/04/08 07:10:30;;;;;;;10.50;3.55;;;;;;;;;;5100026;28;20236;-93
2024/04/08 07:13:38;;;;;;;18.08;3.47;;;;;;;;;;5099708;28;20205;-92
2024/04/08 07:16:42;;;;;;;13.73;3.90;;;;;;;;;;5100358;28;20590;-92
2024/04/08 07:19:57;;;;;;;10.32;3.33;;;;;;;;;;5100814;28;20180;-92
2024/04/08 07:23:05;;;;;;;13.77;3.72;;;;;;;;;;5101436;28;20189;-92
2024/04/08 07:26:09;;;;;;;14.30;3.35;;;;;;;;;;5100163;28;20729;-91
2024/04/08 07:29:15;;;;;;;16.98;3.42;;;;;;;;;;5098177;28;20194;-91
2024/04/08 07:32:19;;;;;;;10.93;3.30;;;;;;;;;;5098072;28;20220;-92
2024/04/08 07:35:36;;;;;;;10.70;3.85;;;;;;;;;;5097758;28;20249;-92
2024/04/08 07:38:46;;;;;;;9.75;3.45;;;;;;;;;;5100224;28;20206;-93
2024/04/08 07:41:52;;;;;;;12.63;3.40;;;;;;;;;;5099531;28;20206;-91
2024/04/08 07:44:58;;;;;;;10.48;3.03;;;;;;;;;;5104495;28;20243;-90
2024/04/08 07:48:04;;;;;;;18.33;3.47;;;;;;;;;;5102528;28;20217;-93
2024/04/08 07:51:11;;;;;;;16.75;3.70;;;;;;;;;;5103308;28;20204;-95
2024/04/08 07:54:17;;;;;;;13.23;3.83;;;;;;;;;;5100956;28;20190;-93
2024/04/08 07:57:27;;;;;;;17.98;4.07;;;;;;;;;;5098823;28;20259;-91
2024/04/08 08:00:34;;;;;;;11.02;3.50;;;;;;;;;;5098841;28;20171;-91
2024/04/08 08:03:48;;;;;;;15.05;3.47;;;;;;;;;;5087726;28;20179;-92
2024/04/08 08:06:52;;;;;;;14.65;4.10;;;;;;;;;;5099863;28;20198;-94
2024/04/08 08:10:00;;;;;;;9.82;3.35;;;;;;;;;;5100475;28;20232;-93
2024/04/08 08:13:05;;;;;;;17.10;3.95;;;;;;;;;;5099692;28;20212;-93
2024/04/08 08:16:11;;;;;;;14.98;3.88;;;;;;;;;;5098880;28;20205;-91
2024/04/08 08:19:17;;;;;;;19.42;3.35;;;;;;;;;;5098175;28;20178;-92
2024/04/08 08:22:24;;;;;;;12.13;3.67;;;;;;;;;;5101133;28;20170;-92
2024/04/08 08:25:35;;;;;;;16.33;3.83;;;;;;;;;;5099397;28;20193;-94
2024/04/08 08:28:40;;;;;;;15.73;3.65;;;;;;;;;;5099837;28;20216;-94
2024/04/08 08:31:53;;;;;;;15.68;3.67;;;;;;;;;;5098476;28;20258;-93
2024/04/08 08:34:58;;;;;;;9.23;3.13;;;;;;;;;;5101483;28;20228;-93
2024/04/08 08:38:03;;;;;;;17.52;3.85;;;;;;;;;;5099537;28;20256;-93
2024/04/08 08:41:11;;;;;;;10.50;3.00;;;;;;;;;;5101798;28;20192;-92
2024/04/08 08:44:16;;;;;;;13.68;3.05;;;;;;;;;;5099740;28;20305;-92
2024/04/08 08:47:23;;;;;;;11.63;3.05;;;;;;;;;;5099570;28;20224;-92
2024/04/08 08:50:32;;;;;;;11.35;3.05;;;;;;;;;;5112382;28;20189;-91
2024/04/08 11:11:15;;;;;;;8.50;2.20;;;;;;;;;;5992148;23;20411;-92
2024/04/08 11:14:20;;;;;;;13.32;2.38;;;;;;;;;;4988874;28;20225;-94
2024/04/08 11:17:29;;;;;;;9.18;2.50;;;;;;;;;;4983924;28;20738;-94
2024/04/08 11:20:34;;;;;;;9.13;1.90;;;;;;;;;;4989286;28;20261;-94
2024/04/08 11:23:42;;;;;;;8.90;2.30;;;;;;;;;;4989164;28;20185;-91
2024/04/08 11:26:49;;;;;;;10.90;2.30;;;;;;;;;;4991370;28;20174;-94
2024/04/08 11:29:54;;;;;;;17.67;2.97;;;;;;;;;;4991245;28;20222;-92
2024/04/08 11:33:02;;;;;;;13.65;3.33;;;;;;;;;;4990357;28;20189;-93
2024/04/08 11:36:09;;;;;;;9.60;1.95;;;;;;;;;;4991284;28;20276;-95
2024/04/08 11:39:13;;;;;;;14.60;2.90;;;;;;;;;;4992444;28;20236;-94
2024/04/08 11:42:20;;;;;;;17.02;2.78;;;;;;;;;;4990439;28;20261;-95
2024/04/08 11:45:28;;;;;;;13.07;2.92;;;;;;;;;;4990773;28;20180;-94
2024/04/08 11:48:34;;;;;;;10.30;2.58;;;;;;;;;;4989929;28;20253;-93
2024/04/08 11:51:38;;;;;;;16.33;2.35;;;;;;;;;;4990024;28;20185;-94
2024/04/08 11:54:44;;;;;;;15.90;3.00;;;;;;;;;;4990486;28;20189;-94
2024/04/08 11:57:49;;;;;;;16.38;3.38;;;;;;;;;;4989763;28;20193;-94
2024/04/08 12:00:55;;;;;;;15.07;2.63;;;;;;;;;;4990011;28;20225;-93
2024/04/08 12:04:00;;;;;;;16.17;3.13;;;;;;;;;;4990224;28;20605;-93
2024/04/08 12:07:07;;;;;;;16.85;3.20;;;;;;;;;;4990405;28;20217;-94
2024/04/08 12:10:12;;;;;;;13.27;3.10;;;;;;;;;;4990977;28;20192;-92
2024/04/08 12:13:20;;;;;;;25.88;3.03;;;;;;;;;;4989908;28;20204;-93
2024/04/08 12:16:26;;;;;;;22.15;2.88;;;;;;;;;;4989845;28;20193;-94
2024/04/08 12:19:32;;;;;;;23.67;3.75;;;;;;;;;;4990865;28;20212;-95
2024/04/08 12:22:36;;;;;;;14.40;3.00;;;;;;;;;;4989988;28;20189;-93
2024/04/08 12:25:42;;;;;;;21.58;3.67;;;;;;;;;;4990033;28;20193;-94
2024/04/08 12:28:48;;;;;;;27.42;4.03;;;;;;;;;;4990423;28;20204;-95
2024/04/08 12:31:54;;;;;;;28.60;4.85;;;;;;;;;;4991626;28;20197;-94
2024/04/08 12:34:59;;;;;;;18.33;3.95;;;;;;;;;;4992181;28;20180;-94
2024/04/08 12:38:08;;;;;;;24.63;4.00;;;;;;;;;;4991737;28;20244;-95
2024/04/08 12:41:13;;;;;;;25.48;3.40;;;;;;;;;;4999429;28;20244;-91
2024/04/08 12:44:20;;;;;;;26.58;4.32;;;;;;;;;;5003249;28;20181;-93
2024/04/08 12:47:25;;;;;;;30.77;4.50;;;;;;;;;;4991795;28;20248;-92
2024/04/08 12:50:41;;;;;;;35.42;4.88;;;;;;;;;;4981338;28;20201;-92
2024/04/08 12:53:45;;;;;;;29.30;5.05;;;;;;;;;;4993918;28;20293;-92
2024/04/08 12:56:52;;;;;;;30.02;4.57;;;;;;;;;;4991527;28;20196;-92
2024/04/08 12:59:59;;;;;;;27.83;4.38;;;;;;;;;;4988129;28;20252;-94
2024/04/08 13:03:04;;;;;;;27.38;4.53;;;;;;;;;;4992569;28;20177;-95
2024/04/08 13:06:09;;;;;;;35.88;4.47;;;;;;;;;;4992829;28;20337;-94
2024/04/08 13:12:35;;;;;;;27.52;4.80;;;;;;;;;;4991220;28;20193;-94
2024/04/08 13:15:41;;;;;;;34.35;4.60;;;;;;;;;;4989781;28;20663;-93
2024/04/08 13:18:47;;;;;;;29.88;4.05;;;;;;;;;;4989776;28;20201;-93
2024/04/08 13:21:51;;;;;;;44.78;5.20;;;;;;;;;;4989307;28;20259;-92
2024/04/08 13:24:57;;;;;;;32.65;4.78;;;;;;;;;;4988505;28;20657;-93
2024/04/08 13:28:03;;;;;;;36.13;5.20;;;;;;;;;;4989611;28;20292;-93
2024/04/08 13:31:10;;;;;;;55.55;5.75;;;;;;;;;;4990214;28;20193;-92
2024/04/08 13:34:16;;;;;;;41.60;5.82;;;;;;;;;;4989856;28;20234;-93
2024/04/08 13:37:20;;;;;;;34.67;4.82;;;;;;;;;;5000221;28;20197;-94
2024/04/08 13:40:26;;;;;;;37.60;5.70;;;;;;;;;;4987901;28;20255;-94
2024/04/08 13:43:31;;;;;;;38.45;6.72;;;;;;;;;;4987150;28;20667;-95
2024/04/08 13:46:37;;;;;;;40.15;5.45;;;;;;;;;;4990006;28;20188;-94
2024/04/08 13:49:43;;;;;;;43.78;5.22;;;;;;;;;;4989068;28;20201;-94
2024/04/08 13:52:49;;;;;;;38.25;6.03;;;;;;;;;;4990530;28;20197;-93
2024/04/08 13:55:56;;;;;;;39.90;5.30;;;;;;;;;;5002503;28;20193;-93
2024/04/08 13:59:02;;;;;;;39.80;4.72;;;;;;;;;;4990002;28;20320;-91
2024/04/08 14:02:10;;;;;;;44.65;5.45;;;;;;;;;;5000472;28;20278;-93
2024/04/08 14:05:15;;;;;;;32.10;5.18;;;;;;;;;;5000065;28;20214;-93
2024/04/08 14:08:19;;;;;;;39.15;5.30;;;;;;;;;;4988489;28;20221;-91
2024/04/08 14:11:34;;;;;;;35.50;5.05;;;;;;;;;;4990070;28;20256;-93
2024/04/08 14:14:38;;;;;;;36.92;4.75;;;;;;;;;;4997445;28;20240;-94
2024/04/08 14:17:45;;;;;;;43.75;6.05;;;;;;;;;;4989215;28;20296;-94
2024/04/08 14:20:50;;;;;;;37.50;5.88;;;;;;;;;;4989428;28;20177;-93
2024/04/08 14:23:55;;;;;;;34.80;5.72;;;;;;;;;;4988657;28;20184;-93
2024/04/08 14:27:01;;;;;;;45.92;5.72;;;;;;;;;;5001918;28;20209;-96
2024/04/08 14:30:10;;;;;;;40.10;5.72;;;;;;;;;;4991798;28;20193;-93
2024/04/08 14:33:17;;;;;;;33.80;5.22;;;;;;;;;;5002394;28;20185;-92
2024/04/08 14:36:24;;;;;;;34.53;5.53;;;;;;;;;;4991584;28;20201;-95
2024/04/08 14:39:30;;;;;;;38.55;5.28;;;;;;;;;;4991661;28;20192;-94
2024/04/08 16:16:28;;;;;;;28.98;4.82;;;;;;;;;;5142290;23;20243;-91
2024/04/08 16:19:33;;;;;;;35.90;4.85;;;;;;;;;;4950906;28;20210;-93
2024/04/08 16:22:38;;;;;;;28.90;4.43;;;;;;;;;;4950550;28;20234;-93
2024/04/08 16:25:44;;;;;;;39.58;4.50;;;;;;;;;;4951652;28;20236;-93
2024/04/08 16:28:52;;;;;;;30.80;4.80;;;;;;;;;;4949681;29;20199;-93
2024/04/08 16:32:01;;;;;;;30.67;5.25;;;;;;;;;;4932607;29;20192;-93
2024/04/08 16:35:05;;;;;;;31.00;5.32;;;;;;;;;;4931991;29;20177;-93
2024/04/08 16:38:10;;;;;;;38.17;5.32;;;;;;;;;;4930569;29;20254;-92
2024/04/08 16:41:16;;;;;;;42.28;5.53;;;;;;;;;;4936809;28;20199;-92
2024/04/08 16:44:21;;;;;;;39.83;5.65;;;;;;;;;;4947467;28;20234;-93
2024/04/08 16:47:27;;;;;;;34.88;5.47;;;;;;;;;;4950143;29;20198;-92
2024/04/08 16:50:33;;;;;;;36.30;5.55;;;;;;;;;;4951373;28;20199;-91
2024/04/08 16:53:38;;;;;;;42.45;4.65;;;;;;;;;;4951033;28;20239;-92
2024/04/08 16:56:43;;;;;;;37.85;5.20;;;;;;;;;;4971688;28;20187;-92
2024/04/08 16:59:47;;;;;;;42.47;5.60;;;;;;;;;;4971848;28;20191;-92
2024/04/08 17:02:54;;;;;;;47.70;5.70;;;;;;;;;;4974870;28;20207;-93
2024/04/08 17:06:01;;;;;;;44.45;5.40;;;;;;;;;;4951511;28;20347;-93
2024/04/08 17:09:06;;;;;;;36.65;5.72;;;;;;;;;;4951402;28;20262;-93
2024/04/08 17:12:11;;;;;;;34.70;4.72;;;;;;;;;;4949768;29;20678;-92
2024/04/08 17:15:16;;;;;;;37.58;5.60;;;;;;;;;;4949022;28;20254;-93
2024/04/08 17:18:23;;;;;;;32.03;5.82;;;;;;;;;;4949811;28;20207;-92
2024/04/08 17:21:28;;;;;;;35.20;5.50;;;;;;;;;;4948882;29;20179;-93
2024/04/08 17:24:32;;;;;;;44.97;5.97;;;;;;;;;;4949128;28;20191;-93
2024/04/08 17:27:37;;;;;;;37.42;5.90;;;;;;;;;;4949602;28;20187;-93
2024/04/08 17:30:42;;;;;;;33.95;4.95;;;;;;;;;;4947806;28;20322;-92
2024/04/08 17:33:50;;;;;;;46.42;5.97;;;;;;;;;;4948827;28;20204;-93
2024/04/08 17:36:54;;;;;;;37.35;6.40;;;;;;;;;;4947833;28;20191;-92
2024/04/08 17:39:59;;;;;;;35.65;5.88;;;;;;;;;;4947822;29;20202;-92
2024/04/08 17:43:03;;;;;;;41.85;6.22;;;;;;;;;;4948083;29;20236;-93
2024/04/08 17:46:09;;;;;;;35.55;5.78;;;;;;;;;;4947813;28;20227;-92
2024/04/08 17:49:15;;;;;;;41.65;6.03;;;;;;;;;;4948721;28;20218;-93
2024/04/08 17:52:20;;;;;;;44.95;6.05;;;;;;;;;;4948776;29;20702;-92
2024/04/08 17:55:24;;;;;;;34.45;6.78;;;;;;;;;;4948675;28;20179;-90
2024/04/08 17:58:31;;;;;;;41.35;5.88;;;;;;;;;;4929227;29;20343;-92
2024/04/08 18:01:36;;;;;;;40.35;6.53;;;;;;;;;;4944128;28;20738;-91
2024/04/08 18:04:44;;;;;;;27.35;6.40;;;;;;;;;;4931807;29;20316;-94
2024/04/08 18:07:48;;;;;;;27.38;5.25;;;;;;;;;;4937936;28;20235;-93
2024/04/08 18:10:56;;;;;;;34.30;5.63;;;;;;;;;;4948015;28;20203;-93
2024/04/08 18:14:02;;;;;;;36.08;5.32;;;;;;;;;;4943663;28;20194;-94
2024/04/08 18:17:06;;;;;;;47.78;6.05;;;;;;;;;;4939825;28;20692;-91
2024/04/08 18:20:13;;;;;;;43.67;6.10;;;;;;;;;;4929746;29;20221;-93
2024/04/08 18:23:18;;;;;;;33.08;5.45;;;;;;;;;;4952092;28;20186;-93
2024/04/08 18:26:23;;;;;;;41.25;6.05;;;;;;;;;;4929569;29;20221;-92
2024/04/08 18:29:30;;;;;;;31.30;4.70;;;;;;;;;;4929405;29;20280;-93
2024/04/08 18:32:36;;;;;;;30.70;5.40;;;;;;;;;;4932177;29;20195;-93
2024/04/08 18:35:41;;;;;;;32.70;5.60;;;;;;;;;;4933072;29;20192;-93
2024/04/08 18:38:47;;;;;;;39.80;5.68;;;;;;;;;;4951143;28;20223;-92
2024/04/08 18:41:51;;;;;;;28.67;5.00;;;;;;;;;;4951410;28;20340;-92
2024/04/08 18:44:56;;;;;;;29.55;6.13;;;;;;;;;;4952630;28;20178;-92
2024/04/08 18:48:00;;;;;;;45.58;6.00;;;;;;;;;;4960863;28;20190;-92
2024/04/08 18:51:07;;;;;;;39.03;6.13;;;;;;;;;;4951407;28;20224;-92
2024/04/08 18:54:11;;;;;;;43.20;7.00;;;;;;;;;;4951159;28;20332;-93
2024/04/08 18:57:17;;;;;;;35.83;6.10;;;;;;;;;;4951200;28;20729;-92
2024/04/08 19:00:22;;;;;;;29.73;5.53;;;;;;;;;;4949546;28;20187;-92
2024/04/08 19:03:27;;;;;;;28.80;5.72;;;;;;;;;;4932306;29;20192;-93
2024/04/08 19:06:34;;;;;;;33.38;5.20;;;;;;;;;;4947881;28;20239;-92
2024/04/08 19:09:39;;;;;;;32.03;5.55;;;;;;;;;;4952257;29;20229;-92
2024/04/08 19:12:44;;;;;;;45.42;7.00;;;;;;;;;;4952697;28;20210;-91
2024/04/08 19:15:48;;;;;;;35.08;6.90;;;;;;;;;;4942516;28;20223;-92
2024/04/08 19:18:53;;;;;;;38.38;6.28;;;;;;;;;;4931989;29;20268;-91
2024/04/08 19:22:00;;;;;;;33.85;5.32;;;;;;;;;;4945376;28;20644;-93
2024/04/08 19:25:04;;;;;;;34.53;6.45;;;;;;;;;;4951529;28;20203;-91
2024/04/08 19:28:10;;;;;;;27.35;5.03;;;;;;;;;;4950377;28;20300;-92
2024/04/08 19:31:14;;;;;;;27.42;6.10;;;;;;;;;;4948238;28;20198;-92
2024/04/08 19:34:19;;;;;;;39.83;5.43;;;;;;;;;;4947338;28;20254;-93
2024/04/08 19:37:26;;;;;;;29.38;5.70;;;;;;;;;;4950354;28;20198;-93
2024/04/08 19:40:33;;;;;;;27.08;5.75;;;;;;;;;;4948177;28;20202;-93
2024/04/08 19:43:37;;;;;;;42.15;5.80;;;;;;;;;;4930984;29;20745;-92
2024/04/08 19:46:43;;;;;;;32.75;5.50;;;;;;;;;;4930847;29;20179;-91
2024/04/08 19:49:47;;;;;;;30.95;5.43;;;;;;;;;;4938694;28;20226;-93
2024/04/08 19:52:53;;;;;;;40.30;5.95;;;;;;;;;;4951127;28;20178;-92
2024/04/08 19:56:06;;;;;;;31.20;5.22;;;;;;;;;;4950755;28;20195;-93
2024/04/08 19:59:13;;;;;;;34.53;5.43;;;;;;;;;;4941954;28;20216;-94
2024/04/08 20:02:17;;;;;;;43.47;6.80;;;;;;;;;;4939904;28;20180;-92
2024/04/08 20:05:22;;;;;;;35.80;6.50;;;;;;;;;;4948716;28;20195;-92
2024/04/08 20:08:29;;;;;;;34.30;7.43;;;;;;;;;;4966091;28;20226;-93
2024/04/08 20:11:35;;;;;;;40.65;7.32;;;;;;;;;;4968022;28;20234;-93
2024/04/08 20:14:40;;;;;;;38.08;6.65;;;;;;;;;;4970329;28;20327;-93
2024/04/08 20:17:45;;;;;;;70.35;29.23;;;;;;;;;;4967886;28;20222;-90
2024/04/08 20:20:50;;;;;;;47.17;11.52;;;;;;;;;;4930677;29;20183;-91
2024/04/08 20:23:59;;;;;;;30.98;6.63;;;;;;;;;;4937037;29;20180;-91
2024/04/08 20:27:03;;;;;;;37.58;5.85;;;;;;;;;;4938620;29;20192;-92
2024/04/08 20:30:10;;;;;;;32.80;5.60;;;;;;;;;;4935104;29;20275;-93
2024/04/08 20:33:14;;;;;;;32.88;5.63;;;;;;;;;;4934695;29;20454;-92
2024/04/08 20:36:20;;;;;;;45.15;5.63;;;;;;;;;;4934920;29;20179;-92
2024/04/08 20:39:28;;;;;;;36.30;5.72;;;;;;;;;;4932949;29;20274;-92
2024/04/08 20:42:41;;;;;;;27.52;5.07;;;;;;;;;;4934933;29;20233;-92
2024/04/08 20:49:10;;;;;;;38.55;6.68;;;;;;;;;;4934207;29;20283;-91
2024/04/08 20:52:14;;;;;;;34.50;5.90;;;;;;;;;;4953715;28;20267;-93
2024/04/08 20:58:45;;;;;;;36.15;5.85;;;;;;;;;;4943242;28;20231;-93
2024/04/08 21:01:49;;;;;;;27.75;5.50;;;;;;;;;;4931466;29;20196;-92
2024/04/08 21:04:55;;;;;;;30.67;5.47;;;;;;;;;;4949680;29;20195;-92
2024/04/08 21:07:59;;;;;;;27.35;5.43;;;;;;;;;;4951568;28;20223;-93
2024/04/08 21:11:28;;;;;;;30.02;5.50;;;;;;;;;;4950446;28;20234;-91
2024/04/08 21:14:39;;;;;;;34.70;6.00;;;;;;;;;;4952820;28;20175;-92
2024/04/08 21:17:43;;;;;;;33.00;5.72;;;;;;;;;;4938576;29;20696;-93
2024/04/08 21:20:50;;;;;;;32.22;5.53;;;;;;;;;;4930377;29;20224;-92
2024/04/08 21:23:54;;;;;;;30.45;6.25;;;;;;;;;;4936361;28;20245;-93
2024/04/08 21:26:59;;;;;;;36.50;6.30;;;;;;;;;;4932021;29;20193;-93
2024/04/08 21:30:06;;;;;;;31.55;5.38;;;;;;;;;;4931438;29;20223;-93
2024/04/08 21:33:11;;;;;;;35.58;5.97;;;;;;;;;;4931503;29;20187;-92
2024/04/08 21:36:15;;;;;;;25.58;5.25;;;;;;;;;;4931858;29;20248;-92
2024/04/08 21:39:22;;;;;;;37.58;5.50;;;;;;;;;;4931088;29;20204;-93
2024/04/08 21:42:28;;;;;;;31.33;5.03;;;;;;;;;;4935837;28;20187;-93
2024/04/08 21:45:33;;;;;;;25.00;5.22;;;;;;;;;;4949005;28;20211;-91
2024/04/08 21:48:39;;;;;;;33.40;5.63;;;;;;;;;;4947231;28;20223;-91
2024/04/08 21:51:45;;;;;;;31.45;5.25;;;;;;;;;;4944736;29;20199;-91
2024/04/08 21:54:51;;;;;;;37.88;5.57;;;;;;;;;;4930452;29;20192;-93
2024/04/08 21:57:55;;;;;;;40.22;5.88;;;;;;;;;;4931252;29;20191;-92
2024/04/08 22:01:05;;;;;;;27.52;6.15;;;;;;;;;;4931156;29;20294;-92
2024/04/08 22:04:11;;;;;;;31.05;5.25;;;;;;;;;;4930483;29;20684;-91
2024/04/08 22:07:20;;;;;;;31.20;6.38;;;;;;;;;;4929413;29;20184;-92
2024/04/08 22:10:25;;;;;;;32.47;5.38;;;;;;;;;;4930391;29;20236;-92
2024/04/08 22:13:29;;;;;;;36.78;5.72;;;;;;;;;;4930635;29;20319;-91
2024/04/08 22:16:36;;;;;;;34.80;6.20;;;;;;;;;;4934719;29;20212;-91
2024/04/08 22:19:40;;;;;;;31.02;6.28;;;;;;;;;;4929459;29;20207;-92
2024/04/08 22:26:46;;;;;;;24.50;5.50;;;;;;;;;;4930812;29;20589;-91
2024/04/08 22:33:13;;;;;;;29.73;5.40;;;;;;;;;;4933487;29;20204;-92
2024/04/08 22:36:17;;;;;;;35.22;4.88;;;;;;;;;;4949717;28;20183;-91